Time;durP1;ratioP1;P1;durP2;ratioP2;P2;SDS_P1;SDS_P2;PMS_P1;PMS_P2;Temp;Humidity;BMP_temperature;BMP_pressure;BME280_temperature;BME280_humidity;BME280_pressure;Samples;Min_cycle;Max_cycle;Signal;HPM_P1;HPM_P2
2021/10/31 00:02:51;;;;;;;44.87;21.47;;;;;;;;;;6182562;23;20183;-90
2021/10/31 00:05:56;;;;;;;52.63;22.37;;;;;;;;;;6184082;23;20172;-90
2021/10/31 00:09:06;;;;;;;49.20;22.40;;;;;;;;;;6181984;23;20172;-89
2021/10/31 00:12:12;;;;;;;49.70;21.97;;;;;;;;;;6182722;23;20309;-90
2021/10/31 00:15:47;;;;;;;50.87;22.90;;;;;;;;;;6181278;23;20171;-90
2021/10/31 00:18:55;;;;;;;49.00;22.97;;;;;;;;;;6182114;23;20171;-89
2021/10/31 00:22:03;;;;;;;48.53;23.27;;;;;;;;;;6180706;23;20200;-90
2021/10/31 00:25:09;;;;;;;51.87;23.63;;;;;;;;;;6182436;23;20287;-90
2021/10/31 00:28:16;;;;;;;51.50;24.20;;;;;;;;;;6183259;23;20167;-91
2021/10/31 00:31:22;;;;;;;51.37;23.80;;;;;;;;;;6183254;23;20276;-92
2021/10/31 00:34:32;;;;;;;51.07;24.57;;;;;;;;;;6183252;23;20164;-93
2021/10/31 00:37:38;;;;;;;52.00;22.90;;;;;;;;;;6179881;23;20249;-91
2021/10/31 00:40:44;;;;;;;48.67;22.30;;;;;;;;;;6181268;23;20167;-89
2021/10/31 00:43:49;;;;;;;45.10;21.77;;;;;;;;;;6181656;23;20195;-91
2021/10/31 00:46:54;;;;;;;47.37;22.73;;;;;;;;;;6181777;23;20176;-92
2021/10/31 00:50:02;;;;;;;50.27;22.63;;;;;;;;;;6181311;23;20249;-90
2021/10/31 00:53:08;;;;;;;47.30;22.47;;;;;;;;;;6180597;23;20243;-91
2021/10/31 00:56:14;;;;;;;49.70;22.83;;;;;;;;;;6180624;23;20155;-88
2021/10/31 00:59:23;;;;;;;51.07;23.63;;;;;;;;;;6181192;23;20163;-89
2021/10/31 01:02:30;;;;;;;51.53;23.83;;;;;;;;;;6181147;23;20199;-91
2021/10/31 01:05:47;;;;;;;47.30;23.13;;;;;;;;;;6181631;23;20155;-90
2021/10/31 01:08:56;;;;;;;47.23;22.13;;;;;;;;;;6180644;23;20239;-91
2021/10/31 01:12:09;;;;;;;49.47;21.77;;;;;;;;;;6182684;23;20155;-90
2021/10/31 01:15:19;;;;;;;50.87;23.33;;;;;;;;;;6182177;23;20171;-90
2021/10/31 01:18:43;;;;;;;45.53;21.87;;;;;;;;;;6182023;23;20219;-89
2021/10/31 01:21:54;;;;;;;50.37;22.73;;;;;;;;;;6181417;23;20176;-89
2021/10/31 01:25:15;;;;;;;45.97;21.97;;;;;;;;;;6182334;23;20176;-92
2021/10/31 01:28:35;;;;;;;48.13;22.50;;;;;;;;;;6183112;23;20545;-92
2021/10/31 01:31:45;;;;;;;44.03;21.37;;;;;;;;;;6181658;23;20171;-90
2021/10/31 01:34:57;;;;;;;47.83;22.20;;;;;;;;;;6181741;23;20237;-90
2021/10/31 01:38:12;;;;;;;51.97;22.27;;;;;;;;;;6181408;23;20188;-90
2021/10/31 01:41:18;;;;;;;46.57;22.27;;;;;;;;;;6181473;23;20176;-91
2021/10/31 01:44:26;;;;;;;47.70;21.43;;;;;;;;;;6181550;23;20538;-90
2021/10/31 01:47:45;;;;;;;47.93;21.83;;;;;;;;;;6181075;23;20159;-90
2021/10/31 01:50:51;;;;;;;47.00;22.07;;;;;;;;;;6182115;23;20168;-89
2021/10/31 01:54:00;;;;;;;47.17;21.93;;;;;;;;;;6181674;23;20266;-92
2021/10/31 01:57:07;;;;;;;46.77;21.63;;;;;;;;;;6184073;23;20168;-90
2021/10/31 02:00:16;;;;;;;45.10;21.60;;;;;;;;;;6182398;23;20167;-91
2021/10/31 02:03:26;;;;;;;50.37;21.33;;;;;;;;;;6180531;23;20194;-90
2021/10/31 02:06:33;;;;;;;38.97;19.57;;;;;;;;;;6179902;23;20201;-89
2021/10/31 02:09:42;;;;;;;47.40;20.80;;;;;;;;;;6180953;23;20248;-90
2021/10/31 02:12:48;;;;;;;44.00;20.17;;;;;;;;;;6180672;23;20251;-90
2021/10/31 02:16:09;;;;;;;49.43;21.93;;;;;;;;;;6181373;23;20510;-91
2021/10/31 02:19:17;;;;;;;49.23;21.97;;;;;;;;;;6181087;23;20195;-88
2021/10/31 02:22:26;;;;;;;48.17;22.13;;;;;;;;;;6182335;23;20172;-89
2021/10/31 02:25:33;;;;;;;47.63;21.73;;;;;;;;;;6179254;23;20168;-89
2021/10/31 02:28:38;;;;;;;72.80;33.03;;;;;;;;;;6178942;23;20163;-90
2021/10/31 02:31:43;;;;;;;49.53;21.77;;;;;;;;;;6179729;23;20225;-90
2021/10/31 02:34:48;;;;;;;45.10;21.10;;;;;;;;;;6177609;23;20217;-89
2021/10/31 02:37:54;;;;;;;46.23;20.60;;;;;;;;;;6179140;23;20271;-89
2021/10/31 02:41:00;;;;;;;47.00;21.77;;;;;;;;;;6179409;23;20619;-91
2021/10/31 02:44:06;;;;;;;43.00;19.67;;;;;;;;;;6178930;23;20200;-91
2021/10/31 02:47:14;;;;;;;38.83;19.23;;;;;;;;;;6179159;23;20246;-91
2021/10/31 02:50:21;;;;;;;44.13;19.73;;;;;;;;;;6177909;23;20175;-91
2021/10/31 02:53:30;;;;;;;44.90;20.87;;;;;;;;;;6177615;23;20195;-91
2021/10/31 02:56:40;;;;;;;43.50;20.97;;;;;;;;;;6179104;23;20168;-91
2021/10/31 02:59:48;;;;;;;45.73;21.73;;;;;;;;;;6180493;23;20175;-91
2021/10/31 03:02:55;;;;;;;47.83;22.20;;;;;;;;;;6180023;23;20195;-90
2021/10/31 03:06:03;;;;;;;48.70;21.07;;;;;;;;;;6180430;23;20179;-90
2021/10/31 03:09:09;;;;;;;44.07;19.30;;;;;;;;;;6179800;23;20176;-90
2021/10/31 03:12:18;;;;;;;44.17;20.57;;;;;;;;;;6181732;23;20183;-93
2021/10/31 03:18:55;;;;;;;48.67;20.80;;;;;;;;;;6179519;23;20192;-90
2021/10/31 03:22:00;;;;;;;44.20;20.70;;;;;;;;;;6181479;23;20164;-91
2021/10/31 03:25:06;;;;;;;44.00;20.37;;;;;;;;;;6180232;23;20207;-90
2021/10/31 03:28:13;;;;;;;44.47;20.10;;;;;;;;;;6181707;23;20167;-91
2021/10/31 03:31:18;;;;;;;44.23;19.87;;;;;;;;;;6180422;23;20180;-90
2021/10/31 03:34:23;;;;;;;47.40;20.53;;;;;;;;;;6180758;23;20244;-90
2021/10/31 03:37:29;;;;;;;41.43;20.53;;;;;;;;;;6181107;23;20208;-91
2021/10/31 03:40:34;;;;;;;48.47;20.93;;;;;;;;;;6179830;23;20167;-90
2021/10/31 03:43:42;;;;;;;41.07;18.73;;;;;;;;;;6181201;23;20207;-91
2021/10/31 03:46:48;;;;;;;47.10;19.50;;;;;;;;;;6181205;23;20183;-91
2021/10/31 03:49:53;;;;;;;42.70;19.27;;;;;;;;;;6181957;23;20202;-91
2021/10/31 03:52:57;;;;;;;46.37;19.27;;;;;;;;;;6182091;23;20179;-91
2021/10/31 03:56:03;;;;;;;42.30;19.60;;;;;;;;;;6181096;23;20179;-91
2021/10/31 03:59:09;;;;;;;45.50;19.87;;;;;;;;;;6182247;23;20163;-90
2021/10/31 04:02:14;;;;;;;38.43;17.97;;;;;;;;;;6182060;23;20568;-90
2021/10/31 04:05:34;;;;;;;39.43;18.10;;;;;;;;;;6181138;23;20172;-89
2021/10/31 04:08:39;;;;;;;44.70;19.07;;;;;;;;;;6180654;23;20191;-90
2021/10/31 04:11:44;;;;;;;37.77;18.30;;;;;;;;;;6179938;23;20175;-92
2021/10/31 04:14:51;;;;;;;39.30;17.03;;;;;;;;;;6179908;23;20167;-91
2021/10/31 04:17:55;;;;;;;41.53;19.07;;;;;;;;;;6179084;23;20172;-90
2021/10/31 04:21:02;;;;;;;42.93;18.10;;;;;;;;;;6198461;23;20177;-89
2021/10/31 04:24:08;;;;;;;49.53;19.07;;;;;;;;;;6180917;23;20278;-90
2021/10/31 04:27:13;;;;;;;39.93;18.67;;;;;;;;;;6180430;23;20248;-87
2021/10/31 04:30:19;;;;;;;42.87;18.50;;;;;;;;;;6180619;23;20175;-91
2021/10/31 04:33:25;;;;;;;40.00;18.03;;;;;;;;;;6180192;23;20176;-91
2021/10/31 04:36:30;;;;;;;37.97;17.87;;;;;;;;;;6180997;23;20266;-90
2021/10/31 04:39:35;;;;;;;36.30;17.10;;;;;;;;;;6180083;23;20184;-89
2021/10/31 04:42:41;;;;;;;37.20;17.17;;;;;;;;;;6179892;23;20159;-91
2021/10/31 04:45:48;;;;;;;41.43;17.93;;;;;;;;;;6179748;23;20171;-91
2021/10/31 04:48:53;;;;;;;36.23;17.43;;;;;;;;;;6179804;23;20171;-92
2021/10/31 04:51:59;;;;;;;34.17;17.17;;;;;;;;;;6179586;23;20187;-89
2021/10/31 04:55:04;;;;;;;43.90;17.43;;;;;;;;;;6179368;23;20660;-90
2021/10/31 04:58:09;;;;;;;39.17;17.10;;;;;;;;;;6180876;23;20700;-88
2021/10/31 05:01:26;;;;;;;38.73;17.47;;;;;;;;;;6180482;23;20220;-88
2021/10/31 05:04:34;;;;;;;37.60;17.83;;;;;;;;;;6179625;23;20289;-87
2021/10/31 05:07:39;;;;;;;37.60;17.17;;;;;;;;;;6182151;23;20159;-89
2021/10/31 05:10:44;;;;;;;38.10;17.47;;;;;;;;;;6181091;23;20172;-88
2021/10/31 05:13:50;;;;;;;38.63;17.13;;;;;;;;;;6181638;23;20228;-90
2021/10/31 05:17:00;;;;;;;41.10;18.20;;;;;;;;;;6182389;23;20247;-85
2021/10/31 05:20:06;;;;;;;36.30;17.50;;;;;;;;;;6182387;23;20342;-87
2021/10/31 05:23:12;;;;;;;40.23;18.67;;;;;;;;;;6181830;23;20243;-88
2021/10/31 05:26:17;;;;;;;36.80;17.80;;;;;;;;;;6180345;23;20167;-89
2021/10/31 05:29:22;;;;;;;39.47;18.80;;;;;;;;;;6181068;23;20171;-88
2021/10/31 05:32:33;;;;;;;38.47;19.23;;;;;;;;;;6179447;23;20172;-90
2021/10/31 05:35:38;;;;;;;43.63;19.03;;;;;;;;;;6178504;23;20227;-90
2021/10/31 05:38:43;;;;;;;44.53;18.37;;;;;;;;;;6178479;23;20171;-89
2021/10/31 05:41:48;;;;;;;41.70;18.43;;;;;;;;;;6180401;23;20212;-91
2021/10/31 05:44:53;;;;;;;41.33;17.60;;;;;;;;;;6178665;23;20543;-90
2021/10/31 05:48:00;;;;;;;38.70;18.60;;;;;;;;;;6179646;23;20246;-90
2021/10/31 05:51:06;;;;;;;37.70;17.90;;;;;;;;;;6181724;23;20179;-90
2021/10/31 05:54:11;;;;;;;41.17;18.10;;;;;;;;;;6180441;23;20291;-89
2021/10/31 05:57:16;;;;;;;41.20;18.67;;;;;;;;;;6182050;23;20606;-92
2021/10/31 06:00:22;;;;;;;40.60;17.07;;;;;;;;;;6181437;23;20220;-90
2021/10/31 06:03:29;;;;;;;37.17;17.27;;;;;;;;;;6182868;23;20531;-91
2021/10/31 06:06:39;;;;;;;38.70;16.40;;;;;;;;;;6179196;23;20167;-89
2021/10/31 06:09:44;;;;;;;39.87;16.97;;;;;;;;;;6179852;23;20654;-89
2021/10/31 06:12:49;;;;;;;39.83;18.00;;;;;;;;;;6179916;23;20171;-90
2021/10/31 06:15:54;;;;;;;30.50;15.10;;;;;;;;;;6178450;23;20354;-89
2021/10/31 06:19:01;;;;;;;40.53;17.53;;;;;;;;;;6178218;23;20250;-89
2021/10/31 06:22:06;;;;;;;41.53;17.27;;;;;;;;;;6180274;23;20175;-91
2021/10/31 06:25:12;;;;;;;41.77;17.67;;;;;;;;;;6180790;23;20591;-91
2021/10/31 06:28:17;;;;;;;36.47;16.77;;;;;;;;;;6179990;23;20255;-90
2021/10/31 06:31:23;;;;;;;45.37;18.13;;;;;;;;;;6179157;23;20176;-89
2021/10/31 06:34:29;;;;;;;39.30;17.93;;;;;;;;;;6180281;23;20171;-91
2021/10/31 06:37:34;;;;;;;42.43;17.17;;;;;;;;;;6180416;23;20177;-88
2021/10/31 06:40:39;;;;;;;46.87;18.70;;;;;;;;;;6181471;23;20175;-88
2021/10/31 06:43:44;;;;;;;46.23;18.13;;;;;;;;;;6185184;23;20184;-90
2021/10/31 06:46:49;;;;;;;54.47;17.00;;;;;;;;;;6182121;23;20167;-90
2021/10/31 06:49:57;;;;;;;39.90;17.33;;;;;;;;;;6182360;23;20176;-90
2021/10/31 06:53:02;;;;;;;38.17;17.20;;;;;;;;;;6183362;23;20171;-92
2021/10/31 06:56:07;;;;;;;40.00;16.87;;;;;;;;;;6180091;23;20183;-88
2021/10/31 06:59:12;;;;;;;31.77;15.90;;;;;;;;;;6182615;23;20232;-89
2021/10/31 07:02:18;;;;;;;30.17;15.23;;;;;;;;;;6180531;23;20180;-89
2021/10/31 07:05:24;;;;;;;32.73;14.77;;;;;;;;;;6179416;23;20195;-90
2021/10/31 07:08:30;;;;;;;43.20;17.17;;;;;;;;;;6181363;23;20170;-91
2021/10/31 07:11:35;;;;;;;31.97;15.87;;;;;;;;;;6182124;23;20168;-88
2021/10/31 07:14:41;;;;;;;36.60;16.43;;;;;;;;;;6181856;23;20164;-89
2021/10/31 07:17:49;;;;;;;34.70;16.67;;;;;;;;;;6182589;23;20171;-88
2021/10/31 07:20:56;;;;;;;55.30;17.13;;;;;;;;;;6162705;23;20172;-89
2021/10/31 07:24:05;;;;;;;34.23;14.60;;;;;;;;;;6181698;23;20210;-87
2021/10/31 07:27:11;;;;;;;33.10;15.03;;;;;;;;;;6180367;23;20176;-89
2021/10/31 07:30:16;;;;;;;28.63;13.70;;;;;;;;;;6197421;23;20175;-90
2021/10/31 07:33:21;;;;;;;30.37;14.77;;;;;;;;;;6179770;23;20176;-90
2021/10/31 07:36:28;;;;;;;33.60;15.50;;;;;;;;;;6180094;23;20168;-90
2021/10/31 07:39:35;;;;;;;36.63;17.07;;;;;;;;;;6179933;23;20199;-91
2021/10/31 07:42:40;;;;;;;33.67;15.77;;;;;;;;;;6177803;23;20217;-89
2021/10/31 07:45:49;;;;;;;35.10;16.67;;;;;;;;;;6180790;23;20519;-90
2021/10/31 07:48:54;;;;;;;33.97;16.20;;;;;;;;;;6182175;23;20596;-89
2021/10/31 07:52:00;;;;;;;36.30;16.80;;;;;;;;;;6181640;23;20247;-89
2021/10/31 07:55:07;;;;;;;37.13;16.03;;;;;;;;;;6181336;23;20678;-90
2021/10/31 07:58:15;;;;;;;36.50;17.47;;;;;;;;;;6200855;23;20167;-90
2021/10/31 08:01:21;;;;;;;33.93;16.37;;;;;;;;;;6183452;23;20295;-91
2021/10/31 08:04:26;;;;;;;36.27;15.23;;;;;;;;;;6183049;23;20191;-92
2021/10/31 08:07:33;;;;;;;59.43;24.87;;;;;;;;;;6181375;23;20183;-89
2021/10/31 08:10:39;;;;;;;32.57;14.80;;;;;;;;;;6180915;23;20175;-88
2021/10/31 08:13:45;;;;;;;32.00;15.53;;;;;;;;;;6181493;23;20175;-92
2021/10/31 08:16:51;;;;;;;30.57;15.53;;;;;;;;;;6183281;23;20175;-92
2021/10/31 08:19:56;;;;;;;32.30;15.80;;;;;;;;;;6180479;23;20183;-92
2021/10/31 08:23:05;;;;;;;31.27;15.73;;;;;;;;;;6182938;23;20176;-92
2021/10/31 08:26:10;;;;;;;38.83;16.93;;;;;;;;;;6183338;23;20492;-90
2021/10/31 08:29:18;;;;;;;32.07;15.87;;;;;;;;;;6183047;23;20238;-90
2021/10/31 08:32:26;;;;;;;31.47;15.47;;;;;;;;;;6185173;23;20179;-89
2021/10/31 08:35:31;;;;;;;29.60;15.77;;;;;;;;;;6182027;23;20348;-89
2021/10/31 08:38:42;;;;;;;31.00;15.13;;;;;;;;;;6182565;23;20191;-89
2021/10/31 08:41:48;;;;;;;29.00;15.23;;;;;;;;;;6186582;23;20184;-91
2021/10/31 08:44:53;;;;;;;27.60;14.37;;;;;;;;;;6185252;23;20267;-89
2021/10/31 08:48:03;;;;;;;33.23;15.43;;;;;;;;;;6186009;23;20259;-91
2021/10/31 08:51:19;;;;;;;34.20;15.53;;;;;;;;;;6188414;23;20208;-91
2021/10/31 08:54:40;;;;;;;32.07;15.67;;;;;;;;;;6186190;23;20243;-89
2021/10/31 08:57:47;;;;;;;31.50;14.53;;;;;;;;;;6188088;23;20266;-88
2021/10/31 09:00:52;;;;;;;28.53;14.40;;;;;;;;;;6183886;23;20168;-88
2021/10/31 09:03:59;;;;;;;28.57;14.37;;;;;;;;;;6182346;23;20171;-89
2021/10/31 09:07:05;;;;;;;38.38;17.00;;;;;;;;;;6183488;23;20187;-90
2021/10/31 09:10:11;;;;;;;32.90;15.18;;;;;;;;;;6181560;23;20187;-93
2021/10/31 09:13:19;;;;;;;28.57;14.63;;;;;;;;;;6183149;23;20171;-92
2021/10/31 09:16:25;;;;;;;31.20;15.83;;;;;;;;;;6182494;23;20168;-90
2021/10/31 09:19:30;;;;;;;30.88;14.30;;;;;;;;;;6181695;23;20284;-92
2021/10/31 09:22:36;;;;;;;29.70;15.35;;;;;;;;;;6182618;23;20221;-89
2021/10/31 09:25:49;;;;;;;27.45;13.85;;;;;;;;;;6180775;23;20191;-92
2021/10/31 09:28:56;;;;;;;30.63;13.27;;;;;;;;;;6181989;23;20251;-90
2021/10/31 09:32:02;;;;;;;33.45;14.43;;;;;;;;;;6183816;23;20168;-89
2021/10/31 09:35:07;;;;;;;27.77;13.25;;;;;;;;;;6181420;23;20175;-90
2021/10/31 09:38:12;;;;;;;28.00;13.07;;;;;;;;;;6182612;23;20272;-89
2021/10/31 09:41:23;;;;;;;23.48;12.10;;;;;;;;;;6183032;23;20176;-90
2021/10/31 09:44:33;;;;;;;30.90;13.15;;;;;;;;;;6184192;23;20243;-90
2021/10/31 09:47:38;;;;;;;24.80;13.20;;;;;;;;;;6183769;23;20177;-89
2021/10/31 09:50:45;;;;;;;33.20;13.73;;;;;;;;;;6187854;23;20699;-91
2021/10/31 09:53:52;;;;;;;29.73;14.60;;;;;;;;;;6184084;23;20199;-90
2021/10/31 09:56:58;;;;;;;33.15;15.52;;;;;;;;;;6185076;23;20180;-91
2021/10/31 10:00:05;;;;;;;40.45;15.65;;;;;;;;;;6184574;23;20250;-90
2021/10/31 10:03:23;;;;;;;29.75;15.35;;;;;;;;;;6202636;23;20172;-90
2021/10/31 10:07:08;;;;;;;26.88;13.70;;;;;;;;;;6184536;23;20183;-90
2021/10/31 10:10:14;;;;;;;27.75;13.98;;;;;;;;;;6200557;23;20501;-90
2021/10/31 10:13:21;;;;;;;31.08;15.38;;;;;;;;;;6182717;23;20175;-89
2021/10/31 10:16:29;;;;;;;28.55;14.75;;;;;;;;;;6183241;23;20667;-91
2021/10/31 10:19:36;;;;;;;31.20;15.02;;;;;;;;;;6183119;23;20227;-90
2021/10/31 10:22:42;;;;;;;31.70;16.88;;;;;;;;;;6182892;23;20195;-90
2021/10/31 10:25:49;;;;;;;44.38;19.35;;;;;;;;;;6183932;23;20304;-89
2021/10/31 10:29:01;;;;;;;32.78;15.82;;;;;;;;;;6182832;23;20187;-91
2021/10/31 10:32:09;;;;;;;33.38;16.00;;;;;;;;;;6182938;23;20176;-92
2021/10/31 10:35:17;;;;;;;28.55;15.35;;;;;;;;;;6183611;23;20168;-91
2021/10/31 10:38:23;;;;;;;32.25;15.40;;;;;;;;;;6183457;23;20407;-91
2021/10/31 10:41:41;;;;;;;33.85;15.65;;;;;;;;;;6182871;23;20239;-91
2021/10/31 10:44:46;;;;;;;32.10;15.88;;;;;;;;;;6184609;23;20195;-90
2021/10/31 10:47:56;;;;;;;28.80;15.30;;;;;;;;;;6184493;23;20249;-91
2021/10/31 10:51:17;;;;;;;29.70;14.27;;;;;;;;;;6185744;23;20239;-91
2021/10/31 10:54:26;;;;;;;29.45;14.30;;;;;;;;;;6187518;23;20240;-91
2021/10/31 10:57:47;;;;;;;34.45;16.77;;;;;;;;;;6188129;23;20172;-89
2021/10/31 11:00:53;;;;;;;34.10;16.08;;;;;;;;;;6184435;23;20192;-90
2021/10/31 11:04:04;;;;;;;27.90;14.55;;;;;;;;;;6187431;23;20172;-91
2021/10/31 11:07:14;;;;;;;27.58;14.57;;;;;;;;;;6184112;23;20176;-90
2021/10/31 11:10:22;;;;;;;32.38;14.95;;;;;;;;;;6183608;23;20299;-91
2021/10/31 11:13:29;;;;;;;29.73;14.73;;;;;;;;;;6184360;23;20171;-90
2021/10/31 11:16:42;;;;;;;33.03;15.10;;;;;;;;;;6184074;23;20163;-89
2021/10/31 11:19:49;;;;;;;30.13;15.18;;;;;;;;;;6185713;23;20196;-89
2021/10/31 11:22:56;;;;;;;25.35;13.38;;;;;;;;;;6184857;23;20255;-90
2021/10/31 11:26:03;;;;;;;32.75;15.63;;;;;;;;;;6185254;23;20195;-90
2021/10/31 11:29:08;;;;;;;37.00;17.15;;;;;;;;;;6184248;23;20228;-89
2021/10/31 11:32:14;;;;;;;52.22;23.33;;;;;;;;;;6184426;23;20151;-90
2021/10/31 11:35:21;;;;;;;40.30;20.95;;;;;;;;;;6184697;23;20187;-90
2021/10/31 11:38:30;;;;;;;32.95;16.52;;;;;;;;;;6183397;23;20172;-90
2021/10/31 11:41:36;;;;;;;39.85;21.30;;;;;;;;;;6184749;23;20176;-91
2021/10/31 11:44:58;;;;;;;28.15;15.07;;;;;;;;;;6186536;23;20167;-92
2021/10/31 11:48:13;;;;;;;33.00;15.85;;;;;;;;;;6186151;23;20172;-91
2021/10/31 11:51:19;;;;;;;29.35;14.48;;;;;;;;;;6185436;23;20176;-94
2021/10/31 11:54:25;;;;;;;28.85;14.75;;;;;;;;;;6183940;23;20195;-91
2021/10/31 11:57:30;;;;;;;25.88;13.75;;;;;;;;;;6184645;23;20176;-92
2021/10/31 12:03:57;;;;;;;29.70;14.40;;;;;;;;;;6184631;23;20208;-92
2021/10/31 12:10:54;;;;;;;28.67;14.27;;;;;;;;;;6184955;23;20229;-89
2021/10/31 12:14:01;;;;;;;29.20;13.65;;;;;;;;;;6183003;23;20175;-91
2021/10/31 12:17:10;;;;;;;27.33;14.52;;;;;;;;;;6184082;23;20179;-90
2021/10/31 12:20:35;;;;;;;29.55;13.35;;;;;;;;;;6185608;23;20252;-89
2021/10/31 12:23:54;;;;;;;28.98;14.60;;;;;;;;;;6185011;23;20172;-91
2021/10/31 12:27:09;;;;;;;29.70;15.32;;;;;;;;;;6184880;23;20192;-90
2021/10/31 12:30:38;;;;;;;30.50;15.98;;;;;;;;;;6184147;23;20240;-90
2021/10/31 12:33:59;;;;;;;33.30;15.52;;;;;;;;;;6182790;23;20277;-92
2021/10/31 12:37:22;;;;;;;34.20;17.50;;;;;;;;;;6184679;23;20215;-89
2021/10/31 12:40:28;;;;;;;32.67;17.08;;;;;;;;;;6182768;23;20235;-89
2021/10/31 12:43:44;;;;;;;33.10;15.57;;;;;;;;;;6183592;23;20172;-88
2021/10/31 12:47:03;;;;;;;32.78;16.38;;;;;;;;;;6184040;23;20188;-91
2021/10/31 12:50:10;;;;;;;35.85;17.20;;;;;;;;;;6184468;23;20212;-89
2021/10/31 12:53:15;;;;;;;35.22;18.63;;;;;;;;;;6183374;23;20198;-89
2021/10/31 12:56:22;;;;;;;39.72;17.67;;;;;;;;;;6184028;23;20205;-90
2021/10/31 12:59:29;;;;;;;37.30;18.98;;;;;;;;;;6183648;23;20187;-90
2021/10/31 13:02:36;;;;;;;33.45;17.15;;;;;;;;;;6185375;23;20300;-90
2021/10/31 13:05:50;;;;;;;39.35;18.92;;;;;;;;;;6184072;23;20215;-89
2021/10/31 13:08:56;;;;;;;34.45;17.40;;;;;;;;;;6184934;23;20171;-92
2021/10/31 13:12:03;;;;;;;33.03;17.73;;;;;;;;;;6183661;23;20171;-90
2021/10/31 13:15:11;;;;;;;36.17;18.02;;;;;;;;;;6185552;23;20171;-91
2021/10/31 13:18:17;;;;;;;37.88;18.67;;;;;;;;;;6184321;23;20168;-90
2021/10/31 13:21:23;;;;;;;38.65;19.83;;;;;;;;;;6184779;23;20160;-88
2021/10/31 13:24:31;;;;;;;38.17;19.70;;;;;;;;;;6158123;23;20188;-90
2021/10/31 13:27:42;;;;;;;40.15;19.20;;;;;;;;;;6182358;23;20163;-86
2021/10/31 13:30:59;;;;;;;37.40;19.00;;;;;;;;;;6182482;23;20227;-90
2021/10/31 13:34:10;;;;;;;35.72;18.85;;;;;;;;;;6184814;23;20184;-90
2021/10/31 13:37:17;;;;;;;39.72;18.85;;;;;;;;;;6184991;23;20211;-91
2021/10/31 13:40:23;;;;;;;36.28;19.35;;;;;;;;;;6184896;23;20176;-90
2021/10/31 13:43:37;;;;;;;43.65;20.15;;;;;;;;;;6184716;23;20235;-90
2021/10/31 13:50:18;;;;;;;37.78;19.75;;;;;;;;;;6205452;23;20272;-91
2021/10/31 13:53:25;;;;;;;42.13;20.50;;;;;;;;;;6186219;23;20195;-91
2021/10/31 13:56:35;;;;;;;46.03;21.27;;;;;;;;;;6186660;23;20191;-91
2021/10/31 13:59:41;;;;;;;43.75;21.38;;;;;;;;;;6185888;23;20188;-92
2021/10/31 14:02:57;;;;;;;44.63;21.83;;;;;;;;;;6185672;23;20211;-89
2021/10/31 14:06:07;;;;;;;43.67;20.48;;;;;;;;;;6184425;23;20199;-90
2021/10/31 14:09:14;;;;;;;40.53;20.70;;;;;;;;;;6187166;23;20179;-88
2021/10/31 14:12:20;;;;;;;42.38;20.42;;;;;;;;;;6187560;23;20152;-90
2021/10/31 14:15:26;;;;;;;43.25;22.20;;;;;;;;;;6187282;23;20172;-90
2021/10/31 14:18:36;;;;;;;49.20;23.05;;;;;;;;;;6185193;23;20184;-90
2021/10/31 14:22:01;;;;;;;48.58;23.35;;;;;;;;;;6183925;23;20321;-90
2021/10/31 14:25:13;;;;;;;43.75;23.42;;;;;;;;;;6185380;23;20208;-90
2021/10/31 14:28:20;;;;;;;55.00;24.17;;;;;;;;;;6183006;23;20168;-93
2021/10/31 14:31:36;;;;;;;57.92;27.13;;;;;;;;;;6183912;23;20176;-88
2021/10/31 14:35:16;;;;;;;55.80;26.48;;;;;;;;;;6184099;23;20227;-88
2021/10/31 14:38:24;;;;;;;51.63;25.77;;;;;;;;;;6184538;23;20176;-90
2021/10/31 14:41:45;;;;;;;50.08;25.65;;;;;;;;;;6184472;23;20172;-91
2021/10/31 14:44:51;;;;;;;52.97;25.90;;;;;;;;;;6184107;23;20180;-92
2021/10/31 14:47:57;;;;;;;57.97;28.23;;;;;;;;;;6184144;23;20168;-90
2021/10/31 14:51:17;;;;;;;56.13;27.33;;;;;;;;;;6183330;23;20188;-89
2021/10/31 14:54:32;;;;;;;60.40;28.73;;;;;;;;;;6185372;23;20188;-92
2021/10/31 14:57:42;;;;;;;54.50;27.38;;;;;;;;;;6184882;23;20163;-91
2021/10/31 15:00:54;;;;;;;54.25;27.80;;;;;;;;;;6184251;23;20268;-88
2021/10/31 15:04:05;;;;;;;61.90;28.67;;;;;;;;;;6186785;23;20219;-92
2021/10/31 15:07:15;;;;;;;63.90;30.02;;;;;;;;;;6188331;23;20249;-92
2021/10/31 15:10:25;;;;;;;63.97;29.88;;;;;;;;;;6186478;23;20175;-88
2021/10/31 15:13:30;;;;;;;64.28;31.73;;;;;;;;;;6186281;23;20244;-89
2021/10/31 15:16:38;;;;;;;73.35;34.35;;;;;;;;;;6184386;23;20220;-90
